createdAt,value
2023-03-13T00:01:02.803Z,13.23
2023-03-13T00:03:29.663Z,12.73
2023-03-13T00:05:58.025Z,13.07
2023-03-13T00:08:33.990Z,11.50
2023-03-13T00:11:08.108Z,12.23
2023-03-13T00:13:35.123Z,11.00
2023-03-13T00:16:29.115Z,11.60
2023-03-13T00:18:57.581Z,11.20
2023-03-13T00:21:26.761Z,11.97
2023-03-13T00:23:54.228Z,12.23
2023-03-13T00:26:23.727Z,11.53
2023-03-13T00:28:51.666Z,12.00
2023-03-13T00:31:21.735Z,12.73
2023-03-13T00:33:50.494Z,12.17
2023-03-13T00:36:21.560Z,12.80
2023-03-13T00:38:48.613Z,14.53
2023-03-13T00:41:18.252Z,12.23
2023-03-13T00:43:46.096Z,11.90
2023-03-13T00:46:17.265Z,14.17
2023-03-13T00:48:44.253Z,12.57
2023-03-13T00:51:11.580Z,11.93
2023-03-13T00:53:38.676Z,12.10
2023-03-13T00:56:07.288Z,11.30
2023-03-13T00:58:36.904Z,11.97
2023-03-13T01:01:24.434Z,11.50
2023-03-13T01:03:57.562Z,10.93
2023-03-13T01:06:27.856Z,12.73
2023-03-13T01:08:54.976Z,11.07
2023-03-13T01:11:25.611Z,11.67
2023-03-13T01:13:57.872Z,11.97
2023-03-13T01:16:26.461Z,11.70
2023-03-13T01:18:55.903Z,11.47
2023-03-13T01:21:25.447Z,13.07
2023-03-13T01:23:53.532Z,11.30
2023-03-13T01:26:21.679Z,12.33
2023-03-13T01:28:48.923Z,12.40
2023-03-13T01:31:19.720Z,11.93
2023-03-13T01:33:49.099Z,13.30
2023-03-13T01:36:16.692Z,12.70
2023-03-13T01:38:43.698Z,12.30
2023-03-13T01:41:13.171Z,13.97
2023-03-13T01:43:40.680Z,14.83
2023-03-13T01:46:07.640Z,14.00
2023-03-13T01:49:01.361Z,13.07
2023-03-13T01:51:47.106Z,13.73
2023-03-13T01:54:26.619Z,14.40
2023-03-13T01:57:09.256Z,12.93
2023-03-13T01:59:42.888Z,13.60
2023-03-13T02:02:09.948Z,13.97
2023-03-13T02:04:40.289Z,13.87
2023-03-13T02:07:14.536Z,13.07
2023-03-13T02:09:44.123Z,12.83
2023-03-13T02:12:15.673Z,13.13
2023-03-13T02:14:47.885Z,12.63
2023-03-13T02:17:15.809Z,12.20
2023-03-13T02:19:52.161Z,13.07
2023-03-13T02:22:54.886Z,12.57
2023-03-13T02:25:24.735Z,12.17
2023-03-13T02:27:56.613Z,11.73
2023-03-13T02:30:24.089Z,12.37
2023-03-13T02:32:53.305Z,12.23
2023-03-13T02:35:27.793Z,13.63
2023-03-13T02:38:00.175Z,12.17
2023-03-13T02:40:34.171Z,11.07
2023-03-13T02:43:05.264Z,11.90
2023-03-13T02:45:32.214Z,11.20
2023-03-13T02:47:59.249Z,11.97
2023-03-13T02:50:26.321Z,10.93
2023-03-13T02:53:01.067Z,11.80
2023-03-13T02:55:48.060Z,11.47
2023-03-13T02:58:14.914Z,10.37
2023-03-13T03:00:41.734Z,12.23
2023-03-13T03:03:08.741Z,10.80
2023-03-13T03:05:35.788Z,11.93
2023-03-13T03:08:02.597Z,12.13
2023-03-13T03:10:29.725Z,10.70
2023-03-13T03:12:56.769Z,11.27
2023-03-13T03:15:23.969Z,12.20
2023-03-13T03:17:53.459Z,11.07
2023-03-13T03:20:20.427Z,11.80
2023-03-13T03:22:47.457Z,10.97
2023-03-13T03:25:14.165Z,11.23
2023-03-13T03:27:41.050Z,10.83
2023-03-13T03:30:08.747Z,11.00
2023-03-13T03:32:35.925Z,10.50
2023-03-13T03:35:02.981Z,11.47
2023-03-13T03:37:29.909Z,10.83
2023-03-13T03:39:56.770Z,11.43
2023-03-13T03:42:23.787Z,11.57
2023-03-13T03:44:50.630Z,10.73
2023-03-13T03:47:18.083Z,10.97
2023-03-13T03:49:44.970Z,12.53
2023-03-13T03:52:11.797Z,11.60
2023-03-13T03:54:38.741Z,11.77
2023-03-13T03:57:05.549Z,11.10
2023-03-13T03:59:32.776Z,11.90
2023-03-13T04:01:59.606Z,10.37
2023-03-13T04:04:26.900Z,10.57
2023-03-13T04:06:54.432Z,11.27
2023-03-13T04:09:21.154Z,10.23
2023-03-13T04:11:48.156Z,10.53
2023-03-13T04:14:15.312Z,9.90
2023-03-13T04:16:42.181Z,10.30
2023-03-13T04:19:09.325Z,10.37
2023-03-13T04:21:36.741Z,11.80
2023-03-13T04:24:03.700Z,10.50
2023-03-13T04:26:30.714Z,10.10
2023-03-13T04:28:57.623Z,10.70
2023-03-13T04:31:24.575Z,10.63
2023-03-13T04:33:51.477Z,10.87
2023-03-13T04:36:18.201Z,10.57
2023-03-13T04:38:45.241Z,10.70
2023-03-13T04:41:13.190Z,10.17
2023-03-13T04:43:40.186Z,11.00
2023-03-13T04:46:07.145Z,10.87
2023-03-13T04:48:34.161Z,10.70
2023-03-13T04:51:01.432Z,10.20
2023-03-13T04:53:28.690Z,10.20
2023-03-13T04:55:55.563Z,10.50
2023-03-13T04:58:22.512Z,10.90
2023-03-13T05:00:49.468Z,11.87
2023-03-13T05:03:16.352Z,10.37
2023-03-13T05:05:43.240Z,11.53
2023-03-13T05:08:11.216Z,11.57
2023-03-13T05:10:38.342Z,10.80
2023-03-13T05:13:05.188Z,10.80
2023-03-13T05:15:32.208Z,10.33
2023-03-13T05:17:59.159Z,10.33
2023-03-13T05:20:26.253Z,10.87
2023-03-13T05:22:53.360Z,11.20
2023-03-13T05:25:20.255Z,11.00
2023-03-13T05:27:47.245Z,12.00
2023-03-13T05:30:14.252Z,10.50
2023-03-13T05:32:42.323Z,11.60
2023-03-13T05:35:09.460Z,11.20
2023-03-13T05:37:36.410Z,10.60
2023-03-13T05:40:04.590Z,11.00
2023-03-13T05:42:31.486Z,10.83
2023-03-13T05:44:58.335Z,10.73
2023-03-13T05:47:25.262Z,9.63
2023-03-13T05:49:52.252Z,10.40
2023-03-13T05:52:19.353Z,10.20
2023-03-13T05:54:46.359Z,9.60
2023-03-13T05:57:13.511Z,9.03
2023-03-13T05:59:40.782Z,8.93
2023-03-13T06:02:07.714Z,8.73
2023-03-13T06:04:35.844Z,9.27
2023-03-13T06:07:02.922Z,7.53
2023-03-13T06:09:29.777Z,7.93
2023-03-13T06:11:56.720Z,7.00
2023-03-13T06:14:23.896Z,6.57
2023-03-13T06:16:50.891Z,7.47
2023-03-13T06:19:20.820Z,7.03
2023-03-13T06:21:47.680Z,6.37
2023-03-13T06:24:14.560Z,6.43
2023-03-13T06:26:41.543Z,6.20
2023-03-13T06:29:08.401Z,5.07
2023-03-13T06:31:35.404Z,4.80
2023-03-13T06:34:02.646Z,4.87
2023-03-13T06:36:29.658Z,5.80
2023-03-13T06:38:56.634Z,5.50
2023-03-13T06:41:23.700Z,6.33
2023-03-13T06:43:50.670Z,6.20
2023-03-13T06:46:23.171Z,7.87
2023-03-13T06:48:50.989Z,6.63
2023-03-13T06:51:21.385Z,6.20
2023-03-13T06:53:51.587Z,5.80
2023-03-13T06:56:18.999Z,6.50
2023-03-13T06:58:49.888Z,6.43
2023-03-13T07:01:24.367Z,6.60
2023-03-13T07:03:51.616Z,6.23
2023-03-13T07:06:18.958Z,6.13
2023-03-13T07:08:46.327Z,6.90
2023-03-13T07:11:16.564Z,6.77
2023-03-13T07:13:43.561Z,6.80
2023-03-13T07:16:13.335Z,7.37
2023-03-13T07:18:47.259Z,6.87
2023-03-13T07:21:15.103Z,7.73
2023-03-13T07:23:42.095Z,6.90
2023-03-13T07:26:13.970Z,7.40
2023-03-13T07:28:41.120Z,7.20
2023-03-13T07:31:17.031Z,7.60
2023-03-13T07:33:45.158Z,7.70
2023-03-13T07:36:14.103Z,6.47
2023-03-13T07:38:43.274Z,7.20
2023-03-13T07:41:19.777Z,7.00
2023-03-13T07:43:46.957Z,7.10
2023-03-13T07:46:18.862Z,7.43
2023-03-13T07:48:46.873Z,7.20
2023-03-13T07:51:23.269Z,7.80
2023-03-13T07:53:52.893Z,8.77
2023-03-13T07:56:24.017Z,7.47
2023-03-13T07:58:52.148Z,8.27
2023-03-13T08:01:26.836Z,8.00
2023-03-13T08:03:56.168Z,9.50
2023-03-13T08:06:29.814Z,10.03
2023-03-13T08:08:58.990Z,9.97
2023-03-13T08:11:28.578Z,9.63
2023-03-13T08:13:57.356Z,10.23
2023-03-13T08:16:28.027Z,10.53
2023-03-13T08:18:57.235Z,11.00
2023-03-13T08:21:35.652Z,10.67
2023-03-13T08:24:07.136Z,10.13
2023-03-13T08:26:36.686Z,10.80
2023-03-13T08:29:07.364Z,10.93
2023-03-13T08:31:42.486Z,10.57
2023-03-13T08:34:12.745Z,9.67
2023-03-13T08:36:40.000Z,10.90
2023-03-13T08:39:19.029Z,10.50
2023-03-13T08:41:46.367Z,10.57
2023-03-13T08:44:18.662Z,11.37
2023-03-13T08:46:45.848Z,11.77
2023-03-13T08:49:13.654Z,13.13
2023-03-13T08:51:41.036Z,12.80
2023-03-13T08:54:08.127Z,14.50
2023-03-13T08:56:35.374Z,14.40
2023-03-13T08:59:04.518Z,14.87
2023-03-13T09:01:36.239Z,16.97
2023-03-13T09:04:05.309Z,16.30
2023-03-13T09:06:37.446Z,16.37
2023-03-13T09:09:06.976Z,17.30
2023-03-13T09:11:34.779Z,17.07
2023-03-13T09:14:03.019Z,15.43
2023-03-13T09:16:32.929Z,14.93
2023-03-13T09:19:00.423Z,14.30
2023-03-13T09:21:35.901Z,14.53
2023-03-13T09:24:04.197Z,13.10
2023-03-13T09:26:31.235Z,12.00
2023-03-13T09:28:58.991Z,12.83
2023-03-13T09:31:35.591Z,12.13
2023-03-13T09:34:02.909Z,12.93
2023-03-13T09:36:30.221Z,14.33
2023-03-13T09:38:59.505Z,13.60
2023-03-13T09:41:31.492Z,14.83
2023-03-13T09:44:18.446Z,13.37
2023-03-13T09:47:12.664Z,13.53
2023-03-13T09:49:47.375Z,13.00
2023-03-13T09:52:27.685Z,12.50
2023-03-13T09:55:03.378Z,12.67
2023-03-13T09:57:55.997Z,12.90
2023-03-13T10:00:25.526Z,13.50
2023-03-13T10:03:21.122Z,13.87
2023-03-13T10:05:55.608Z,13.80
2023-03-13T10:08:25.154Z,12.47
2023-03-13T10:11:07.901Z,12.70
2023-03-13T10:13:44.028Z,13.10
2023-03-13T10:16:53.579Z,12.23
2023-03-13T10:19:31.525Z,12.60
2023-03-13T10:22:02.506Z,11.73
2023-03-13T10:24:42.717Z,10.40
2023-03-13T10:27:11.566Z,9.43
2023-03-13T10:29:38.935Z,9.97
2023-03-13T10:32:08.588Z,8.90
2023-03-13T10:34:58.799Z,7.30
2023-03-13T10:37:40.428Z,6.53
2023-03-13T10:40:26.848Z,5.30
2023-03-13T10:43:01.206Z,5.00
2023-03-13T10:45:33.151Z,4.57
2023-03-13T10:48:27.524Z,4.33
2023-03-13T10:51:01.231Z,4.20
2023-03-13T10:53:29.226Z,4.20
2023-03-13T10:56:18.845Z,4.10
2023-03-13T10:58:50.170Z,3.80
2023-03-13T11:01:29.844Z,3.67
2023-03-13T11:04:03.122Z,3.83
2023-03-13T11:06:31.388Z,3.50
2023-03-13T11:09:03.636Z,3.13
2023-03-13T11:11:31.297Z,2.60
2023-03-13T11:14:25.430Z,2.60
2023-03-13T11:16:59.389Z,2.43
2023-03-13T11:19:30.184Z,2.10
2023-03-13T11:22:15.363Z,2.60
2023-03-13T11:25:04.857Z,2.30
2023-03-13T11:28:07.319Z,2.10
2023-03-13T11:30:49.260Z,1.90
2023-03-13T11:33:28.841Z,1.80
2023-03-13T11:36:10.516Z,2.20
2023-03-13T11:38:44.706Z,1.87
2023-03-13T11:41:41.837Z,2.10
2023-03-13T11:44:27.085Z,2.00
2023-03-13T11:47:14.025Z,2.00
2023-03-13T11:50:08.563Z,1.77
2023-03-13T11:52:47.569Z,1.80
2023-03-13T11:55:26.875Z,1.73
2023-03-13T11:58:09.630Z,2.03
2023-03-13T12:00:58.176Z,1.70
2023-03-13T12:03:37.373Z,1.50
2023-03-13T12:06:15.926Z,1.60
2023-03-13T12:08:56.206Z,1.53
2023-03-13T12:11:28.882Z,1.80
2023-03-13T12:14:05.606Z,2.03
2023-03-13T12:16:57.411Z,1.60
2023-03-13T12:19:46.074Z,1.77
2023-03-13T12:22:25.087Z,2.03
2023-03-13T12:25:00.152Z,1.77
2023-03-13T12:27:33.806Z,1.77
2023-03-13T12:30:06.963Z,1.47
2023-03-13T12:32:33.831Z,1.60
2023-03-13T12:35:32.249Z,1.40
2023-03-13T12:38:14.516Z,1.50
2023-03-13T12:41:15.108Z,1.83
2023-03-13T12:43:57.215Z,1.73
2023-03-13T12:47:12.807Z,1.70
2023-03-13T12:50:04.802Z,1.70
2023-03-13T12:52:31.828Z,1.67
2023-03-13T12:55:14.603Z,1.93
2023-03-13T12:58:06.799Z,2.00
2023-03-13T13:00:40.243Z,1.83
2023-03-13T13:03:43.922Z,1.70
2023-03-13T13:06:14.390Z,1.53
2023-03-13T13:08:53.034Z,1.80
2023-03-13T13:11:41.290Z,2.00
2023-03-13T13:14:17.622Z,1.70
2023-03-13T13:16:48.713Z,1.90
2023-03-13T13:19:24.714Z,1.90
2023-03-13T13:22:29.009Z,1.87
2023-03-13T13:25:00.782Z,1.80
2023-03-13T13:27:50.931Z,1.63
2023-03-13T13:30:18.004Z,1.80
2023-03-13T13:32:50.090Z,1.97
2023-03-13T13:35:24.738Z,1.73
2023-03-13T13:37:51.942Z,1.73
2023-03-13T13:40:26.856Z,1.60
2023-03-13T13:43:02.119Z,1.93
2023-03-13T13:45:35.666Z,1.73
2023-03-13T13:48:26.754Z,1.70
2023-03-13T13:51:13.290Z,1.50
2023-03-13T13:53:47.997Z,1.83
2023-03-13T13:56:39.551Z,1.50
2023-03-13T13:59:52.626Z,1.60
2023-03-13T14:03:00.391Z,1.60
2023-03-13T14:05:30.866Z,1.43
2023-03-13T14:08:16.463Z,1.63
2023-03-13T14:10:47.107Z,1.83
2023-03-13T14:13:22.156Z,1.73
2023-03-13T14:15:53.055Z,1.40
2023-03-13T14:18:25.940Z,1.50
2023-03-13T14:20:54.491Z,1.90
2023-03-13T14:23:42.396Z,1.53
2023-03-13T14:26:18.171Z,1.40
2023-03-13T14:29:07.378Z,1.90
2023-03-13T14:31:37.650Z,1.30
2023-03-13T14:34:07.817Z,1.47
2023-03-13T14:37:01.600Z,1.80
2023-03-13T14:39:34.439Z,1.33
2023-03-13T14:42:05.776Z,1.60
2023-03-13T14:44:41.795Z,1.50
2023-03-13T14:47:31.022Z,1.73
2023-03-13T14:50:04.566Z,1.63
2023-03-13T14:52:34.087Z,1.77
2023-03-13T14:55:05.344Z,1.90
2023-03-13T14:57:33.369Z,1.90
2023-03-13T15:00:28.332Z,1.50
2023-03-13T15:03:17.205Z,1.70
2023-03-13T15:05:46.180Z,1.50
2023-03-13T15:08:23.159Z,1.67
2023-03-13T15:10:51.090Z,1.67
2023-03-13T15:13:34.385Z,1.73
2023-03-13T15:16:04.291Z,1.83
2023-03-13T15:18:34.625Z,1.87
2023-03-13T15:21:13.512Z,2.67
2023-03-13T15:23:49.381Z,2.37
2023-03-13T15:26:16.362Z,2.20
2023-03-13T15:28:43.516Z,1.87
2023-03-13T15:31:13.266Z,1.80
2023-03-13T15:33:40.735Z,1.60
2023-03-13T15:36:08.119Z,1.70
2023-03-13T15:38:35.543Z,1.47
2023-03-13T15:41:02.678Z,1.67
2023-03-13T15:43:29.740Z,1.73
2023-03-13T15:45:56.650Z,1.90
2023-03-13T15:48:29.676Z,1.80
2023-03-13T15:51:02.628Z,1.70
2023-03-13T15:53:34.784Z,1.80
2023-03-13T15:56:03.552Z,1.60
2023-03-13T15:58:30.752Z,1.70
2023-03-13T16:00:58.661Z,1.70
2023-03-13T16:03:27.437Z,4.23
2023-03-13T16:05:56.255Z,1.87
2023-03-13T16:08:37.068Z,9.53
2023-03-13T16:11:04.357Z,2.00
2023-03-13T16:13:31.721Z,2.17
2023-03-13T16:15:58.820Z,1.80
2023-03-13T16:18:26.225Z,1.70
2023-03-13T16:20:53.967Z,1.60
2023-03-13T16:23:20.884Z,1.60
2023-03-13T16:25:48.762Z,1.47
2023-03-13T16:28:16.556Z,1.33
2023-03-13T16:30:47.890Z,1.60
2023-03-13T16:33:17.322Z,1.67
2023-03-13T16:35:47.371Z,1.60
2023-03-13T16:38:14.387Z,1.87
2023-03-13T16:40:41.489Z,1.83
2023-03-13T16:43:15.788Z,1.50
2023-03-13T16:45:42.796Z,1.50
2023-03-13T16:48:17.713Z,1.60
2023-03-13T16:50:46.910Z,1.50
2023-03-13T16:53:15.017Z,1.60
2023-03-13T16:55:42.126Z,1.57
2023-03-13T16:58:12.798Z,1.63
2023-03-13T17:00:39.917Z,1.63
2023-03-13T17:03:06.847Z,1.80
2023-03-13T17:05:33.980Z,1.63
2023-03-13T17:08:00.862Z,1.83
2023-03-13T17:10:30.412Z,2.23
2023-03-13T17:12:59.678Z,1.90
2023-03-13T17:15:28.803Z,1.60
2023-03-13T17:17:56.577Z,1.77
2023-03-13T17:20:29.826Z,1.70
2023-03-13T17:22:57.112Z,1.83
2023-03-13T17:25:25.249Z,1.53
2023-03-13T17:27:52.711Z,1.47
2023-03-13T17:30:19.688Z,1.70
2023-03-13T17:32:48.284Z,1.80
2023-03-13T17:35:15.608Z,1.73
2023-03-13T17:37:44.688Z,1.60
2023-03-13T17:40:19.624Z,1.70
2023-03-13T17:42:48.287Z,2.20
2023-03-13T17:45:20.490Z,2.43
2023-03-13T17:47:49.451Z,2.10
2023-03-13T17:50:27.407Z,2.00
2023-03-13T17:52:54.876Z,2.17
2023-03-13T17:55:22.044Z,2.30
2023-03-13T17:57:49.816Z,2.40
2023-03-13T18:00:22.215Z,6.27
2023-03-13T18:02:49.824Z,9.63
2023-03-13T18:05:17.113Z,5.30
2023-03-13T18:07:44.593Z,5.77
2023-03-13T18:10:20.807Z,3.50
2023-03-13T18:12:48.298Z,4.97
2023-03-13T18:15:15.478Z,4.17
2023-03-13T18:17:42.582Z,3.80
2023-03-13T18:20:21.923Z,2.93
2023-03-13T18:22:48.920Z,3.33
2023-03-13T18:25:15.895Z,4.37
2023-03-13T18:27:42.755Z,3.97
2023-03-13T18:30:19.178Z,3.30
2023-03-13T18:32:46.732Z,4.03
2023-03-13T18:35:14.100Z,3.97
2023-03-13T18:37:46.518Z,3.50
2023-03-13T18:40:24.566Z,4.43
2023-03-13T18:42:52.052Z,3.40
2023-03-13T18:45:24.005Z,3.30
2023-03-13T18:47:51.329Z,3.70
2023-03-13T18:50:28.588Z,3.80
2023-03-13T18:53:00.554Z,4.00
2023-03-13T18:55:30.305Z,3.33
2023-03-13T18:58:00.367Z,4.37
2023-03-13T19:00:30.516Z,3.47
2023-03-13T19:02:57.608Z,3.17
2023-03-13T19:05:24.963Z,3.27
2023-03-13T19:07:52.048Z,3.17
2023-03-13T19:10:26.149Z,3.33
2023-03-13T19:12:55.122Z,3.43
2023-03-13T19:15:24.627Z,3.90
2023-03-13T19:17:52.255Z,3.93
2023-03-13T19:20:22.050Z,3.43
2023-03-13T19:22:49.019Z,3.40
2023-03-13T19:25:19.870Z,3.93
2023-03-13T19:27:50.123Z,4.23
2023-03-13T19:30:25.953Z,3.80
2023-03-13T19:32:53.429Z,4.33
2023-03-13T19:35:22.312Z,4.20
2023-03-13T19:37:50.092Z,3.73
2023-03-13T19:40:26.084Z,4.63
2023-03-13T19:42:56.049Z,4.53
2023-03-13T19:45:23.138Z,4.30
2023-03-13T19:47:50.488Z,4.00
2023-03-13T19:50:23.319Z,4.00
2023-03-13T19:52:50.378Z,4.33
2023-03-13T19:55:17.356Z,4.30
2023-03-13T19:57:44.501Z,4.60
2023-03-13T20:00:19.765Z,4.63
2023-03-13T20:02:47.047Z,3.77
2023-03-13T20:05:14.134Z,4.10
2023-03-13T20:07:41.990Z,3.33
2023-03-13T20:10:09.438Z,4.03
2023-03-13T20:12:36.505Z,4.30
2023-03-13T20:15:03.904Z,3.90
2023-03-13T20:17:33.536Z,4.00
2023-03-13T20:20:00.324Z,3.63
2023-03-13T20:22:27.289Z,3.97
2023-03-13T20:24:56.053Z,4.17
2023-03-13T20:27:22.875Z,4.70
2023-03-13T20:29:50.231Z,3.97
2023-03-13T20:32:17.119Z,3.60
2023-03-13T20:34:44.008Z,4.43
2023-03-13T20:37:10.869Z,5.10
2023-03-13T20:39:38.557Z,5.53
2023-03-13T20:42:08.381Z,6.20
2023-03-13T20:44:35.317Z,7.90
2023-03-13T20:47:02.120Z,8.83
2023-03-13T20:49:29.030Z,7.70
2023-03-13T20:51:55.997Z,6.23
2023-03-13T20:54:22.963Z,4.80
2023-03-13T20:56:49.782Z,5.10
2023-03-13T20:59:16.676Z,5.67
2023-03-13T21:01:44.219Z,4.50
2023-03-13T21:04:11.172Z,5.03
2023-03-13T21:06:38.143Z,5.30
2023-03-13T21:09:07.943Z,3.80
2023-03-13T21:11:34.960Z,4.57
2023-03-13T21:14:04.750Z,3.90
2023-03-13T21:16:31.745Z,4.10
2023-03-13T21:18:59.231Z,4.17
2023-03-13T21:21:29.718Z,3.87
2023-03-13T21:23:56.652Z,4.90
2023-03-13T21:26:23.473Z,5.07
2023-03-13T21:28:51.231Z,5.10
2023-03-13T21:31:19.291Z,5.37
2023-03-13T21:33:47.884Z,5.23
2023-03-13T21:36:18.695Z,4.67
2023-03-13T21:38:46.076Z,4.07
2023-03-13T21:41:16.807Z,4.37
2023-03-13T21:43:43.940Z,3.97
2023-03-13T21:46:13.003Z,3.97
2023-03-13T21:48:41.769Z,4.00
2023-03-13T21:51:09.160Z,3.93
2023-03-13T21:53:37.105Z,4.33
2023-03-13T21:56:05.011Z,3.70
2023-03-13T21:58:34.140Z,3.87
2023-03-13T22:01:01.232Z,4.20
2023-03-13T22:03:28.283Z,3.57
2023-03-13T22:05:55.581Z,3.50
2023-03-13T22:08:22.655Z,3.43
2023-03-13T22:10:51.063Z,4.00
2023-03-13T22:13:17.959Z,4.07
2023-03-13T22:15:46.718Z,3.33
2023-03-13T22:18:14.725Z,3.50
2023-03-13T22:20:42.290Z,3.67
2023-03-13T22:23:10.676Z,3.70
2023-03-13T22:25:42.529Z,3.20
2023-03-13T22:28:11.047Z,3.13
2023-03-13T22:30:39.200Z,3.50
2023-03-13T22:33:07.024Z,3.47
2023-03-13T22:35:35.661Z,3.27
2023-03-13T22:38:03.840Z,3.50
2023-03-13T22:40:30.773Z,3.90
2023-03-13T22:42:57.884Z,3.67
2023-03-13T22:45:25.768Z,2.70
2023-03-13T22:47:52.532Z,3.63
2023-03-13T22:50:21.085Z,3.33
2023-03-13T22:52:47.977Z,3.80
2023-03-13T22:55:14.902Z,4.10
2023-03-13T22:57:41.876Z,3.93
2023-03-13T23:00:10.338Z,3.67
2023-03-13T23:02:37.215Z,3.93
2023-03-13T23:05:04.573Z,4.27
2023-03-13T23:07:32.655Z,4.03
2023-03-13T23:09:59.892Z,3.93
2023-03-13T23:12:27.104Z,3.90
2023-03-13T23:14:54.721Z,3.97
2023-03-13T23:17:21.682Z,4.40
2023-03-13T23:19:48.915Z,4.00
2023-03-13T23:22:18.202Z,4.80
2023-03-13T23:24:45.315Z,3.73
2023-03-13T23:27:12.091Z,4.20
2023-03-13T23:29:39.409Z,4.53
2023-03-13T23:32:06.821Z,4.90
2023-03-13T23:34:36.109Z,4.33
2023-03-13T23:37:03.526Z,4.13
2023-03-13T23:39:31.020Z,4.37
2023-03-13T23:41:58.045Z,4.20
2023-03-13T23:44:24.740Z,4.53
2023-03-13T23:46:51.881Z,4.47
2023-03-13T23:49:18.666Z,4.13
2023-03-13T23:51:45.603Z,4.87
2023-03-13T23:54:12.762Z,4.07
2023-03-13T23:56:39.728Z,4.50
2023-03-13T23:59:06.699Z,4.00
